createdAt,value
2018-10-09T00:01:13.155Z,100085.00
2018-10-09T00:03:44.141Z,100084.00
2018-10-09T00:06:15.113Z,100087.00
2018-10-09T00:08:46.121Z,100083.00
2018-10-09T00:11:17.157Z,100081.00
2018-10-09T00:13:47.994Z,100074.00
2018-10-09T00:16:18.922Z,100076.00
2018-10-09T00:18:50.054Z,100072.00
2018-10-09T00:21:21.182Z,100075.00
2018-10-09T00:23:52.041Z,100067.00
2018-10-09T00:26:23.059Z,100069.00
2018-10-09T00:28:54.032Z,100069.00
2018-10-09T00:31:24.962Z,100074.00
2018-10-09T00:33:56.061Z,100075.00
2018-10-09T00:36:27.233Z,100071.00
2018-10-09T00:38:58.961Z,100074.00
2018-10-09T00:41:30.177Z,100069.00
2018-10-09T00:44:01.604Z,100068.00
2018-10-09T00:46:32.628Z,100068.00
2018-10-09T00:49:03.509Z,100067.00
2018-10-09T00:51:34.803Z,100066.00
2018-10-09T00:54:05.994Z,100068.00
2018-10-09T00:56:36.966Z,100073.00
2018-10-09T00:59:07.776Z,100074.00
2018-10-09T01:01:38.962Z,100073.00
2018-10-09T01:04:10.060Z,100069.00
2018-10-09T01:06:41.013Z,100066.00
2018-10-09T01:09:12.192Z,100069.00
2018-10-09T01:11:43.266Z,100073.00
2018-10-09T01:14:15.212Z,100072.00
2018-10-09T01:16:46.125Z,100075.00
2018-10-09T01:19:17.070Z,100067.00
2018-10-09T01:21:48.042Z,100075.00
2018-10-09T01:24:19.052Z,100082.00
2018-10-09T01:26:50.267Z,100083.00
2018-10-09T01:29:21.204Z,100088.00
2018-10-09T01:31:52.194Z,100093.00
2018-10-09T01:34:23.109Z,100089.00
2018-10-09T01:36:54.171Z,100093.00
2018-10-09T01:39:25.279Z,100091.00
2018-10-09T01:41:56.282Z,100096.00
2018-10-09T01:44:27.335Z,100098.00
2018-10-09T01:46:58.400Z,100102.00
2018-10-09T01:49:29.312Z,100101.00
2018-10-09T01:52:00.623Z,100107.00
2018-10-09T01:54:31.421Z,100103.00
2018-10-09T01:57:02.373Z,100100.00
2018-10-09T01:59:33.331Z,100097.00
2018-10-09T02:02:04.228Z,100096.00
2018-10-09T02:04:35.134Z,100095.00
2018-10-09T02:07:06.221Z,100098.00
2018-10-09T02:09:37.395Z,100101.00
2018-10-09T02:12:08.499Z,100105.00
2018-10-09T02:14:39.658Z,100104.00
2018-10-09T02:17:10.855Z,100102.00
2018-10-09T02:19:41.711Z,100103.00
2018-10-09T02:22:12.637Z,100106.00
2018-10-09T02:24:43.416Z,100109.00
2018-10-09T02:27:14.320Z,100106.00
2018-10-09T02:29:45.633Z,100105.00
2018-10-09T02:32:16.754Z,100109.00
2018-10-09T02:34:47.695Z,100106.00
2018-10-09T02:37:18.585Z,100113.00
2018-10-09T02:39:49.466Z,100114.00
2018-10-09T02:42:20.515Z,100115.00
2018-10-09T02:44:51.343Z,100115.00
2018-10-09T02:47:22.264Z,100109.00
2018-10-09T02:49:53.221Z,100115.00
2018-10-09T02:52:24.080Z,100118.00
2018-10-09T02:54:54.930Z,100122.00
2018-10-09T02:57:25.773Z,100118.00
2018-10-09T02:59:56.667Z,100121.00
2018-10-09T03:02:27.731Z,100116.00
2018-10-09T03:04:58.518Z,100112.00
2018-10-09T03:07:29.522Z,100105.00
2018-10-09T03:10:00.550Z,100095.00
2018-10-09T03:12:31.458Z,100098.00
2018-10-09T03:15:02.371Z,100096.00
2018-10-09T03:17:33.296Z,100094.00
2018-10-09T03:20:04.168Z,100098.00
2018-10-09T03:22:35.443Z,100094.00
2018-10-09T03:25:06.536Z,100096.00
2018-10-09T03:27:37.532Z,100094.00
2018-10-09T03:30:10.796Z,100088.00
2018-10-09T03:32:41.568Z,100091.00
2018-10-09T03:35:12.846Z,100093.00
2018-10-09T03:37:43.857Z,100091.00
2018-10-09T03:40:15.136Z,100085.00
2018-10-09T03:42:46.101Z,100086.00
2018-10-09T03:45:16.889Z,100087.00
2018-10-09T03:47:47.654Z,100090.00
2018-10-09T03:50:18.687Z,100088.00
2018-10-09T03:52:49.520Z,100095.00
2018-10-09T03:55:20.298Z,100094.00
2018-10-09T03:57:51.152Z,100097.00
2018-10-09T04:00:22.016Z,100101.00
2018-10-09T04:02:52.727Z,100096.00
2018-10-09T04:05:23.520Z,100091.00
2018-10-09T04:07:54.577Z,100091.00
2018-10-09T04:10:25.689Z,100088.00
2018-10-09T04:12:56.726Z,100089.00
2018-10-09T04:15:27.909Z,100090.00
2018-10-09T04:17:58.806Z,100091.00
2018-10-09T04:20:29.543Z,100102.00
2018-10-09T04:23:00.585Z,100104.00
2018-10-09T04:25:31.511Z,100099.00
2018-10-09T04:28:02.541Z,100103.00
2018-10-09T04:30:33.476Z,100107.00
2018-10-09T04:33:04.586Z,100116.00
2018-10-09T04:35:35.615Z,100122.00
2018-10-09T04:38:07.005Z,100124.00
2018-10-09T04:40:37.791Z,100127.00
2018-10-09T04:43:08.546Z,100125.00
2018-10-09T04:45:39.475Z,100125.00
2018-10-09T04:48:10.677Z,100127.00
2018-10-09T04:50:41.430Z,100132.00
2018-10-09T04:53:12.557Z,100128.00
2018-10-09T04:55:43.616Z,100132.00
2018-10-09T04:58:14.482Z,100134.00
2018-10-09T05:00:45.636Z,100132.00
2018-10-09T05:03:16.676Z,100124.00
2018-10-09T05:05:47.548Z,100129.00
2018-10-09T05:08:18.506Z,100122.00
2018-10-09T05:10:49.896Z,100126.00
2018-10-09T05:13:23.399Z,100122.00
2018-10-09T05:15:57.802Z,100121.00
2018-10-09T05:18:31.279Z,100124.00
2018-10-09T05:21:05.363Z,100120.00
2018-10-09T05:23:39.816Z,100119.00
2018-10-09T05:26:10.844Z,100119.00
2018-10-09T05:28:41.560Z,100119.00
2018-10-09T05:31:12.227Z,100114.00
2018-10-09T05:33:43.396Z,100113.00
2018-10-09T05:36:16.745Z,100110.00
2018-10-09T05:38:51.694Z,100107.00
2018-10-09T05:41:25.893Z,100106.00
2018-10-09T05:43:58.283Z,100106.00
2018-10-09T05:46:29.709Z,100104.00
2018-10-09T05:49:00.991Z,100112.00
2018-10-09T05:51:32.036Z,100114.00
2018-10-09T05:54:03.015Z,100119.00
2018-10-09T05:56:41.432Z,100117.00
2018-10-09T05:59:18.350Z,100115.00
2018-10-09T06:01:49.704Z,100118.00
2018-10-09T06:04:21.106Z,100116.00
2018-10-09T06:06:53.555Z,100117.00
2018-10-09T06:09:25.416Z,100117.00
2018-10-09T06:11:58.007Z,100124.00
2018-10-09T06:14:29.443Z,100122.00
2018-10-09T06:17:00.699Z,100122.00
2018-10-09T06:19:32.730Z,100122.00
2018-10-09T06:22:04.604Z,100119.00
2018-10-09T06:24:37.795Z,100117.00
2018-10-09T06:27:10.357Z,100119.00
2018-10-09T06:29:41.686Z,100122.00
2018-10-09T06:32:12.700Z,100120.00
2018-10-09T06:34:44.030Z,100127.00
2018-10-09T06:37:17.585Z,100125.00
2018-10-09T06:39:50.016Z,100125.00
2018-10-09T06:42:21.789Z,100128.00
2018-10-09T06:44:53.693Z,100127.00
2018-10-09T06:47:25.101Z,100137.00
2018-10-09T06:49:56.653Z,100138.00
2018-10-09T06:52:28.793Z,100137.00
2018-10-09T06:55:00.586Z,100138.00
2018-10-09T06:57:32.215Z,100139.00
2018-10-09T07:00:03.911Z,100145.00
2018-10-09T07:02:35.135Z,100154.00
2018-10-09T07:05:06.483Z,100156.00
2018-10-09T07:07:38.074Z,100166.00
2018-10-09T07:10:09.485Z,100168.00
2018-10-09T07:12:40.881Z,100175.00
2018-10-09T07:15:11.795Z,100175.00
2018-10-09T07:17:42.930Z,100183.00
2018-10-09T07:20:14.139Z,100184.00
2018-10-09T07:22:45.489Z,100183.00
2018-10-09T07:25:16.805Z,100183.00
2018-10-09T07:27:47.830Z,100179.00
2018-10-09T07:30:19.070Z,100180.00
2018-10-09T07:32:50.088Z,100180.00
2018-10-09T07:35:21.281Z,100184.00
2018-10-09T07:37:52.363Z,100186.00
2018-10-09T07:40:23.381Z,100186.00
2018-10-09T07:42:54.957Z,100187.00
2018-10-09T07:45:26.365Z,100187.00
2018-10-09T07:47:57.211Z,100190.00
2018-10-09T07:50:28.946Z,100192.00
2018-10-09T07:53:00.799Z,100193.00
2018-10-09T07:55:32.189Z,100194.00
2018-10-09T07:58:03.333Z,100194.00
2018-10-09T08:00:34.608Z,100195.00
2018-10-09T08:03:05.701Z,100193.00
2018-10-09T08:05:36.908Z,100195.00
2018-10-09T08:08:08.567Z,100198.00
2018-10-09T08:10:39.878Z,100201.00
2018-10-09T08:13:11.406Z,100202.00
2018-10-09T08:15:42.828Z,100202.00
2018-10-09T08:18:14.334Z,100204.00
2018-10-09T08:20:46.004Z,100198.00
2018-10-09T08:23:17.332Z,100201.00
2018-10-09T08:25:48.483Z,100203.00
2018-10-09T08:28:19.435Z,100200.00
2018-10-09T08:30:51.168Z,100203.00
2018-10-09T08:33:22.697Z,100199.00
2018-10-09T08:35:54.059Z,100196.00
2018-10-09T08:38:25.218Z,100197.00
2018-10-09T08:40:56.379Z,100201.00
2018-10-09T08:43:27.568Z,100197.00
2018-10-09T08:45:58.740Z,100198.00
2018-10-09T08:48:30.137Z,100194.00
2018-10-09T08:51:01.603Z,100197.00
2018-10-09T08:53:33.351Z,100200.00
2018-10-09T08:56:04.847Z,100194.00
2018-10-09T08:58:36.023Z,100196.00
2018-10-09T09:01:07.508Z,100193.00
2018-10-09T09:03:39.111Z,100185.00
2018-10-09T09:06:10.908Z,100186.00
2018-10-09T09:08:42.215Z,100183.00
2018-10-09T09:11:13.550Z,100187.00
2018-10-09T09:13:45.388Z,100179.00
2018-10-09T09:16:16.572Z,100180.00
2018-10-09T09:18:48.099Z,100176.00
2018-10-09T09:21:19.531Z,100178.00
2018-10-09T09:23:51.299Z,100178.00
2018-10-09T09:26:22.615Z,100172.00
2018-10-09T09:28:53.994Z,100170.00
2018-10-09T09:31:25.544Z,100176.00
2018-10-09T09:33:57.701Z,100171.00
2018-10-09T09:36:30.015Z,100165.00
2018-10-09T09:39:01.459Z,100162.00
2018-10-09T09:41:33.061Z,100163.00
2018-10-09T09:44:04.960Z,100165.00
2018-10-09T09:46:38.020Z,100163.00
2018-10-09T09:49:11.614Z,100165.00
2018-10-09T09:51:44.018Z,100167.00
2018-10-09T09:54:16.296Z,100165.00
2018-10-09T09:56:48.434Z,100166.00
2018-10-09T09:59:20.170Z,100160.00
2018-10-09T10:01:54.312Z,100160.00
2018-10-09T10:04:26.232Z,100160.00
2018-10-09T10:06:57.788Z,100163.00
2018-10-09T10:09:30.506Z,100163.00
2018-10-09T10:12:02.968Z,100157.00
2018-10-09T10:14:35.636Z,100154.00
2018-10-09T10:17:07.251Z,100147.00
2018-10-09T10:19:40.473Z,100147.00
2018-10-09T10:22:11.977Z,100146.00
2018-10-09T10:24:43.374Z,100143.00
2018-10-09T10:27:14.856Z,100138.00
2018-10-09T10:29:47.291Z,100135.00
2018-10-09T10:32:19.774Z,100128.00
2018-10-09T10:34:53.753Z,100127.00
2018-10-09T10:37:27.787Z,100133.00
2018-10-09T10:40:00.831Z,100131.00
2018-10-09T10:42:33.442Z,100134.00
2018-10-09T10:45:05.855Z,100122.00
2018-10-09T10:47:39.184Z,100123.00
2018-10-09T10:50:13.501Z,100119.00
2018-10-09T10:52:45.028Z,100116.00
2018-10-09T10:55:16.789Z,100116.00
2018-10-09T10:57:48.493Z,100114.00
2018-10-09T11:00:20.427Z,100117.00
2018-10-09T11:02:52.222Z,100114.00
2018-10-09T11:05:24.046Z,100119.00
2018-10-09T11:07:55.474Z,100117.00
2018-10-09T11:10:26.917Z,100115.00
2018-10-09T11:12:58.110Z,100119.00
2018-10-09T11:15:32.225Z,100113.00
2018-10-09T11:18:04.497Z,100108.00
2018-10-09T11:20:36.632Z,100101.00
2018-10-09T11:23:08.314Z,100103.00
2018-10-09T11:25:39.785Z,100101.00
2018-10-09T11:28:11.830Z,100099.00
2018-10-09T11:30:43.814Z,100102.00
2018-10-09T11:33:15.403Z,100100.00
2018-10-09T11:35:52.388Z,100099.00
2018-10-09T11:38:24.238Z,100094.00
2018-10-09T11:40:56.754Z,100088.00
2018-10-09T11:43:29.163Z,100091.00
2018-10-09T11:46:00.731Z,100089.00
2018-10-09T11:48:34.254Z,100089.00
2018-10-09T11:51:12.220Z,100081.00
2018-10-09T11:53:46.340Z,100076.00
2018-10-09T11:56:19.274Z,100073.00
2018-10-09T11:58:51.546Z,100067.00
2018-10-09T12:01:24.196Z,100067.00
2018-10-09T12:03:56.648Z,100070.00
2018-10-09T12:06:28.996Z,100069.00
2018-10-09T12:09:01.379Z,100068.00
2018-10-09T12:11:34.674Z,100065.00
2018-10-09T12:14:07.194Z,100066.00
2018-10-09T12:16:39.534Z,100061.00
2018-10-09T12:19:11.886Z,100050.00
2018-10-09T12:21:43.933Z,100051.00
2018-10-09T12:24:19.540Z,100050.00
2018-10-09T12:26:51.633Z,100050.00
2018-10-09T12:29:27.548Z,100050.00
2018-10-09T12:31:59.808Z,100043.00
2018-10-09T12:34:33.338Z,100045.00
2018-10-09T12:37:06.546Z,100042.00
2018-10-09T12:39:38.584Z,100038.00
2018-10-09T12:42:11.898Z,100038.00
2018-10-09T12:47:24.255Z,100036.00
2018-10-09T12:49:54.556Z,100035.00
2018-10-09T12:52:24.877Z,100032.00
2018-10-09T12:54:55.181Z,100026.00
2018-10-09T12:57:25.928Z,100030.00
2018-10-09T12:59:56.225Z,100026.00
2018-10-09T13:02:26.760Z,100025.00
2018-10-09T13:04:57.305Z,100025.00
2018-10-09T13:07:27.630Z,100017.00
2018-10-09T13:09:58.030Z,100016.00
2018-10-09T13:12:28.332Z,100014.00
2018-10-09T13:14:58.865Z,100013.00
2018-10-09T13:17:29.454Z,100015.00
2018-10-09T13:20:00.161Z,100014.00
2018-10-09T13:22:30.712Z,100011.00
2018-10-09T13:25:01.210Z,100008.00
2018-10-09T13:27:32.577Z,100007.00
2018-10-09T13:30:02.864Z,100010.00
2018-10-09T13:32:33.175Z,100006.00
2018-10-09T13:35:03.482Z,100007.00
2018-10-09T13:37:33.794Z,100000.00
2018-10-09T13:40:04.104Z,99998.00
2018-10-09T13:42:34.489Z,99998.00
2018-10-09T13:45:05.004Z,100004.00
2018-10-09T13:47:35.379Z,99999.00
2018-10-09T13:50:06.020Z,99989.00
2018-10-09T13:52:36.568Z,99986.00
2018-10-09T13:55:06.898Z,99985.00
2018-10-09T13:57:37.966Z,99990.00
2018-10-09T14:00:08.333Z,99988.00
2018-10-09T14:02:39.194Z,99994.00
2018-10-09T14:05:09.464Z,99986.00
2018-10-09T14:07:40.978Z,99983.00
2018-10-09T14:10:11.316Z,99984.00
2018-10-09T14:12:41.830Z,99977.00
2018-10-09T14:15:12.159Z,99973.00
2018-10-09T14:17:42.581Z,99970.00
2018-10-09T14:20:12.857Z,99976.00
2018-10-09T14:22:43.174Z,99974.00
2018-10-09T14:25:13.629Z,99975.00
2018-10-09T14:27:43.928Z,99974.00
2018-10-09T14:30:14.537Z,99973.00
2018-10-09T14:32:45.065Z,99974.00
2018-10-09T14:35:15.331Z,99970.00
2018-10-09T14:37:45.618Z,99969.00
2018-10-09T14:40:16.181Z,99960.00
2018-10-09T14:42:46.723Z,99960.00
2018-10-09T14:45:17.249Z,99964.00
2018-10-09T14:47:47.532Z,99959.00
2018-10-09T14:50:17.836Z,99964.00
2018-10-09T14:52:48.136Z,99967.00
2018-10-09T14:55:18.524Z,99966.00
2018-10-09T14:57:49.068Z,99969.00
2018-10-09T15:00:19.344Z,99968.00
2018-10-09T15:02:49.890Z,99965.00
2018-10-09T15:05:20.416Z,99966.00
2018-10-09T15:07:50.692Z,99965.00
2018-10-09T15:10:21.202Z,99963.00
2018-10-09T15:12:51.737Z,99965.00
2018-10-09T15:15:22.269Z,99968.00
2018-10-09T15:17:52.599Z,99968.00
2018-10-09T15:20:23.113Z,99971.00
2018-10-09T15:22:53.421Z,99965.00
2018-10-09T15:25:24.212Z,99964.00
2018-10-09T15:27:54.558Z,99961.00
2018-10-09T15:30:24.833Z,99962.00
2018-10-09T15:32:55.160Z,99969.00
2018-10-09T15:35:25.766Z,99969.00
2018-10-09T15:37:56.405Z,99966.00
2018-10-09T15:40:26.940Z,99967.00
2018-10-09T15:42:57.245Z,99971.00
2018-10-09T15:45:27.808Z,99974.00
2018-10-09T15:47:58.101Z,99974.00
2018-10-09T15:50:28.609Z,99977.00
2018-10-09T15:52:58.913Z,99976.00
2018-10-09T15:55:29.172Z,99976.00
2018-10-09T15:57:59.737Z,99973.00
2018-10-09T16:00:34.136Z,99973.00
2018-10-09T16:03:06.728Z,99976.00
2018-10-09T16:05:37.612Z,99977.00
2018-10-09T16:08:11.178Z,99971.00
2018-10-09T16:10:41.941Z,99979.00
2018-10-09T16:13:12.293Z,99982.00
2018-10-09T16:15:42.805Z,99980.00
2018-10-09T16:18:13.360Z,99979.00
2018-10-09T16:20:43.965Z,99979.00
2018-10-09T16:23:14.397Z,99987.00
2018-10-09T16:25:44.888Z,99990.00
2018-10-09T16:28:15.424Z,99990.00
2018-10-09T16:30:45.688Z,99993.00
2018-10-09T16:33:16.010Z,99993.00
2018-10-09T16:35:46.284Z,99995.00
2018-10-09T16:38:16.820Z,99997.00
2018-10-09T16:40:47.131Z,99994.00
2018-10-09T16:43:17.417Z,99999.00
2018-10-09T16:45:47.952Z,99997.00
2018-10-09T16:48:18.261Z,100001.00
2018-10-09T16:51:08.546Z,100000.00
2018-10-09T16:56:53.029Z,99999.00
2018-10-09T16:59:32.800Z,99994.00
2018-10-09T17:02:18.384Z,99996.00
2018-10-09T17:05:01.596Z,100007.00
2018-10-09T17:07:39.324Z,100016.00
2018-10-09T17:10:18.006Z,100018.00
2018-10-09T17:12:54.776Z,100018.00
2018-10-09T17:15:44.535Z,100016.00
2018-10-09T17:18:20.319Z,100023.00
2018-10-09T17:20:53.209Z,100023.00
2018-10-09T17:23:26.039Z,100027.00
2018-10-09T17:26:01.832Z,100028.00
2018-10-09T17:28:34.203Z,100029.00
2018-10-09T17:31:07.695Z,100026.00
2018-10-09T17:33:44.570Z,100024.00
2018-10-09T17:36:16.968Z,100033.00
2018-10-09T17:39:07.111Z,100028.00
2018-10-09T17:41:53.321Z,100027.00
2018-10-09T17:44:24.739Z,100029.00
2018-10-09T17:46:58.542Z,100027.00
2018-10-09T17:49:30.927Z,100031.00
2018-10-09T17:52:04.230Z,100036.00
2018-10-09T17:54:38.546Z,100034.00
2018-10-09T17:57:12.869Z,100027.00
2018-10-09T17:59:46.218Z,100030.00
2018-10-09T18:02:20.920Z,100032.00
2018-10-09T18:04:51.892Z,100029.00
2018-10-09T18:07:23.843Z,100033.00
2018-10-09T18:09:57.046Z,100032.00
2018-10-09T18:12:34.834Z,100036.00
2018-10-09T18:15:07.075Z,100035.00
2018-10-09T18:17:39.424Z,100039.00
2018-10-09T18:20:11.853Z,100033.00
2018-10-09T18:22:44.095Z,100044.00
2018-10-09T18:25:15.925Z,100051.00
2018-10-09T18:27:47.684Z,100056.00
2018-10-09T18:30:22.150Z,100058.00
2018-10-09T18:32:54.421Z,100058.00
2018-10-09T18:35:30.371Z,100057.00
2018-10-09T18:38:02.684Z,100057.00
2018-10-09T18:40:48.202Z,100058.00
2018-10-09T18:43:28.143Z,100056.00
2018-10-09T18:46:05.135Z,100057.00
2018-10-09T18:48:36.587Z,100053.00
2018-10-09T18:51:08.624Z,100053.00
2018-10-09T18:53:39.666Z,100052.00
2018-10-09T18:56:12.803Z,100053.00
2018-10-09T18:58:46.695Z,100055.00
2018-10-09T19:01:20.583Z,100050.00
2018-10-09T19:03:55.557Z,100053.00
2018-10-09T19:06:30.364Z,100056.00
2018-10-09T19:09:01.268Z,100055.00
2018-10-09T19:11:34.757Z,100059.00
2018-10-09T19:14:07.127Z,100061.00
2018-10-09T19:16:47.039Z,100060.00
2018-10-09T19:19:23.618Z,100058.00
2018-10-09T19:22:06.338Z,100062.00
2018-10-09T19:24:42.678Z,100066.00
2018-10-09T19:27:22.775Z,100066.00
2018-10-09T19:30:02.143Z,100074.00
2018-10-09T19:32:39.682Z,100073.00
2018-10-09T19:35:18.247Z,100078.00
2018-10-09T19:37:55.978Z,100075.00
2018-10-09T19:40:36.389Z,100074.00
2018-10-09T19:43:14.700Z,100072.00
2018-10-09T19:45:55.646Z,100074.00
2018-10-09T19:48:37.580Z,100076.00
2018-10-09T19:51:17.465Z,100072.00
2018-10-09T19:53:55.159Z,100074.00
2018-10-09T19:56:33.902Z,100069.00
2018-10-09T19:59:11.772Z,100072.00
2018-10-09T20:01:52.765Z,100069.00
2018-10-09T20:04:32.086Z,100067.00
2018-10-09T20:07:12.880Z,100067.00
2018-10-09T20:09:54.961Z,100072.00
2018-10-09T20:12:36.155Z,100075.00
2018-10-09T20:15:13.996Z,100073.00
2018-10-09T20:17:52.215Z,100073.00
2018-10-09T20:20:31.023Z,100071.00
2018-10-09T20:23:09.768Z,100074.00
2018-10-09T20:25:48.128Z,100071.00
2018-10-09T20:28:29.666Z,100074.00
2018-10-09T20:31:13.753Z,100078.00
2018-10-09T20:33:54.428Z,100076.00
2018-10-09T20:36:34.946Z,100079.00
2018-10-09T20:39:20.011Z,100077.00
2018-10-09T20:42:00.253Z,100077.00
2018-10-09T20:44:41.924Z,100077.00
2018-10-09T20:47:24.429Z,100075.00
2018-10-09T20:50:44.638Z,100081.00
2018-10-09T20:53:24.646Z,100078.00
2018-10-09T20:56:03.401Z,100083.00
2018-10-09T20:58:41.657Z,100074.00
2018-10-09T21:01:20.509Z,100075.00
2018-10-09T21:07:14.387Z,100072.00
2018-10-09T21:09:56.425Z,100078.00
2018-10-09T21:12:34.095Z,100073.00
2018-10-09T21:15:19.945Z,100075.00
2018-10-09T21:18:10.103Z,100071.00
2018-10-09T21:20:55.842Z,100072.00
2018-10-09T21:23:37.061Z,100067.00
2018-10-09T21:26:14.804Z,100063.00
2018-10-09T21:28:58.202Z,100060.00
2018-10-09T21:31:46.186Z,100064.00
2018-10-09T21:34:22.397Z,100065.00
2018-10-09T21:37:09.158Z,100057.00
2018-10-09T21:39:54.431Z,100059.00
2018-10-09T21:42:39.449Z,100052.00
2018-10-09T21:45:24.238Z,100050.00
2018-10-09T21:48:08.216Z,100050.00
2018-10-09T21:50:51.392Z,100048.00
2018-10-09T21:53:29.378Z,100054.00
2018-10-09T21:56:10.136Z,100051.00
2018-10-09T21:58:46.298Z,100046.00
2018-10-09T22:01:26.898Z,100040.00
2018-10-09T22:04:06.815Z,100037.00
2018-10-09T22:06:52.856Z,100046.00
2018-10-09T22:09:31.275Z,100044.00
2018-10-09T22:12:13.296Z,100048.00
2018-10-09T22:14:53.249Z,100049.00
2018-10-09T22:17:30.223Z,100049.00
2018-10-09T22:20:07.398Z,100050.00
2018-10-09T22:22:46.326Z,100040.00
2018-10-09T22:28:08.655Z,100046.00
2018-10-09T22:30:44.315Z,100029.00
2018-10-09T22:33:19.885Z,100044.00
2018-10-09T22:35:55.743Z,100044.00
2018-10-09T22:38:31.258Z,100046.00
2018-10-09T22:41:07.341Z,100042.00
2018-10-09T22:43:43.058Z,100033.00
2018-10-09T22:46:18.626Z,100045.00
2018-10-09T22:48:54.222Z,100018.00
2018-10-09T22:51:29.860Z,100033.00
2018-10-09T22:54:05.776Z,100039.00
2018-10-09T22:56:41.408Z,100029.00
2018-10-09T22:59:16.969Z,100034.00
2018-10-09T23:01:52.591Z,100023.00
2018-10-09T23:04:28.157Z,100036.00
2018-10-09T23:07:03.760Z,100031.00
2018-10-09T23:09:39.274Z,100039.00
2018-10-09T23:12:14.876Z,100034.00
2018-10-09T23:14:50.528Z,100034.00
2018-10-09T23:17:26.234Z,100034.00
2018-10-09T23:20:01.786Z,100032.00
2018-10-09T23:22:37.389Z,100032.00
2018-10-09T23:25:13.185Z,100024.00
2018-10-09T23:27:48.836Z,100019.00
2018-10-09T23:30:24.397Z,100020.00
2018-10-09T23:32:59.966Z,100022.00
2018-10-09T23:35:35.600Z,100020.00
2018-10-09T23:38:11.215Z,100015.00
2018-10-09T23:40:46.820Z,100014.00
2018-10-09T23:43:22.429Z,100008.00
2018-10-09T23:45:57.985Z,99999.00
2018-10-09T23:48:33.657Z,100000.00
2018-10-09T23:51:09.209Z,100003.00
2018-10-09T23:53:44.752Z,100002.00
2018-10-09T23:56:20.343Z,100000.00
2018-10-09T23:58:55.929Z,100005.00
